Historique des stations

Station météo de Bazoches-les-Gallerandes

Altitude de la station : 134 m







Données météorologiques pour le 02/12/2021
Date
Heure
Températures Humidité Point de rosée Vitesse
du vent
Direction Rafales Windchill Pression Pluviométrie
Cumul
Date
Heure
Températures Humidité Point de rosée Vitesse
du vent
Direction Rafales Windchill Pression Pluviométrie
Cumul
02/12/2021 17:004.5 °C82 %1.7 °C6 km/hNO10 km/h4.51011 hPa1.2 mm
02/12/2021 16:404.7 °C81 %1.7 °C6 km/hNO13 km/h4.71010 hPa1.2 mm
02/12/2021 16:304.9 °C79 %1.6 °C7 km/hNO15 km/h4.91010 hPa1.2 mm
02/12/2021 16:105.1 °C80 %1.9 °C7 km/hNO13 km/h5.11010 hPa1.2 mm
02/12/2021 16:005.1 °C80 %1.9 °C8 km/hNO23 km/h5.11010 hPa1.2 mm
02/12/2021 15:405.3 °C76 %1.4 °C9 km/hNO18 km/h3.21010 hPa1.2 mm
02/12/2021 15:305.2 °C80 %2.0 °C9 km/hNO16 km/h3.31010 hPa1.2 mm
02/12/2021 15:104.9 °C81 %2.0 °C10 km/hONO19 km/h2.61010 hPa1.2 mm
02/12/2021 15:004.9 °C82 %2.1 °C10 km/hONO21 km/h2.61010 hPa1.2 mm
02/12/2021 14:404.8 °C82 %2.0 °C10 km/hNO18 km/h2.61009 hPa1.2 mm
02/12/2021 14:304.6 °C82 %1.8 °C10 km/hNO18 km/h2.31010 hPa1.2 mm
02/12/2021 14:104.4 °C84 %1.9 °C9 km/hNO19 km/h1.91010 hPa1.2 mm
02/12/2021 14:003.9 °C86 %1.8 °C8 km/hNO18 km/h1.41010 hPa1.2 mm
02/12/2021 13:403.2 °C87 %1.2 °C7 km/hNO24 km/h0.31009 hPa1.2 mm
02/12/2021 13:305.2 °C85 %2.9 °C6 km/hONO16 km/h5.21009 hPa0.8 mm
02/12/2021 13:104.8 °C87 %2.8 °C7 km/hONO15 km/h4.81010 hPa0.8 mm
02/12/2021 13:004.8 °C85 %2.5 °C8 km/hONO15 km/h4.81010 hPa0.8 mm
02/12/2021 12:404.8 °C85 %2.5 °C8 km/hONO16 km/h2.91010 hPa0.8 mm
02/12/2021 12:304.7 °C86 %2.6 °C8 km/hNO18 km/h2.71010 hPa0.8 mm
02/12/2021 12:105.1 °C87 %3.1 °C7 km/hNO18 km/h2.61010 hPa0.8 mm
02/12/2021 12:004.4 °C90 %2.9 °C6 km/hONO16 km/h2.21010 hPa0.8 mm
02/12/2021 11:404.0 °C90 %2.5 °C5 km/hONO15 km/h4.01010 hPa0.8 mm
02/12/2021 11:303.9 °C90 %2.5 °C4 km/hONO13 km/h3.91010 hPa0.8 mm
02/12/2021 11:103.5 °C91 %2.2 °C4 km/hONO11 km/h3.51010 hPa0.8 mm
02/12/2021 11:003.4 °C91 %2.1 °C4 km/hONO8 km/h3.41010 hPa0.8 mm
02/12/2021 10:403.2 °C91 %1.8 °C3 km/hNO11 km/h3.21010 hPa0.8 mm
02/12/2021 10:303.1 °C91 %1.8 °C2 km/hNO10 km/h3.11009 hPa0.8 mm
02/12/2021 10:103.0 °C92 %1.8 °C2 km/h11 km/h3.01009 hPa0.8 mm
02/12/2021 10:002.4 °C93 %1.4 °C2 km/hNO6 km/h2.41009 hPa0.8 mm
02/12/2021 09:402.0 °C93 %1.0 °C2 km/hNO5 km/h2.01008 hPa0.8 mm
02/12/2021 09:301.7 °C94 %0.9 °C2 km/hNO6 km/h1.71008 hPa0.8 mm
02/12/2021 09:101.4 °C94 %0.6 °C2 km/hNO6 km/h1.41008 hPa0.8 mm
02/12/2021 09:001.3 °C94 %0.5 °C2 km/hNO6 km/h1.31008 hPa0.8 mm
02/12/2021 08:401.3 °C93 %0.3 °C2 km/hONO8 km/h1.31008 hPa0.8 mm
02/12/2021 08:301.7 °C92 %0.5 °C3 km/hONO5 km/h1.71007 hPa0.8 mm
02/12/2021 08:102.1 °C92 %0.9 °C4 km/hNO8 km/h2.11007 hPa0.8 mm
02/12/2021 08:002.4 °C92 %1.3 °C6 km/hNO13 km/h2.41007 hPa0.8 mm
02/12/2021 07:402.7 °C92 %1.5 °C6 km/h11 km/h2.71007 hPa0.8 mm
02/12/2021 07:303.0 °C92 %1.8 °C6 km/hNO13 km/h3.01007 hPa0.8 mm
02/12/2021 07:103.3 °C92 %2.1 °C7 km/hNO13 km/h3.31007 hPa0.8 mm
02/12/2021 07:003.7 °C92 %2.5 °C7 km/hNO13 km/h3.71007 hPa0.8 mm
02/12/2021 06:404.0 °C93 %3.0 °C8 km/hNO15 km/h4.01006 hPa0.8 mm
02/12/2021 06:304.3 °C93 %3.2 °C7 km/hNO16 km/h2.31006 hPa0.8 mm
02/12/2021 06:104.4 °C94 %3.6 °C6 km/hNO23 km/h2.21006 hPa0.8 mm
02/12/2021 06:004.6 °C95 %3.8 °C6 km/hNO16 km/h2.61006 hPa0.8 mm
02/12/2021 05:404.4 °C96 %3.9 °C4 km/hNO11 km/h4.41005 hPa0.8 mm
02/12/2021 05:304.4 °C96 %3.9 °C4 km/hNO11 km/h4.41005 hPa0.8 mm
02/12/2021 05:104.4 °C96 %3.8 °C4 km/hNO11 km/h4.41005 hPa0.8 mm
02/12/2021 05:004.3 °C96 %3.7 °C4 km/hNO10 km/h4.31005 hPa0.6 mm
02/12/2021 04:404.2 °C95 %3.4 °C4 km/hNO11 km/h4.21005 hPa0.2 mm
02/12/2021 04:304.1 °C96 %3.5 °C3 km/hNO11 km/h4.11005 hPa0.0 mm
02/12/2021 04:103.8 °C96 %3.3 °C2 km/h10 km/h3.81005 hPa0.0 mm
02/12/2021 04:003.5 °C96 %2.9 °C2 km/hO6 km/h3.51005 hPa0.0 mm
02/12/2021 03:403.4 °C96 %2.9 °C2 km/hO5 km/h3.41005 hPa0.0 mm
02/12/2021 03:303.4 °C96 %2.8 °C2 km/hO8 km/h3.41004 hPa0.0 mm
02/12/2021 03:103.3 °C96 %2.7 °C2 km/hO8 km/h3.31004 hPa0.0 mm
02/12/2021 03:003.2 °C96 %2.6 °C2 km/hO6 km/h3.21004 hPa0.0 mm
02/12/2021 02:403.2 °C96 %2.6 °C2 km/hOSO8 km/h3.21004 hPa0.0 mm
02/12/2021 02:303.1 °C96 %2.5 °C2 km/hO10 km/h3.11004 hPa0.0 mm
02/12/2021 02:102.9 °C96 %2.3 °C2 km/hOSO6 km/h2.91004 hPa0.0 mm
02/12/2021 02:002.8 °C96 %2.3 °C2 km/hO6 km/h2.81004 hPa0.0 mm
02/12/2021 01:402.6 °C96 %2.0 °C2 km/hO6 km/h2.61003 hPa0.0 mm
02/12/2021 01:302.6 °C95 %1.9 °C2 km/hO5 km/h2.61003 hPa0.0 mm
02/12/2021 00:403.1 °C95 %2.4 °C2 km/hOSO5 km/h3.11003 hPa3.0 mm
02/12/2021 00:303.2 °C95 %2.4 °C2 km/hO5 km/h3.21003 hPa3.0 mm
02/12/2021 00:103.4 °C95 %2.7 °C2 km/hO5 km/h3.41004 hPa3.0 mm
02/12/2021 00:003.4 °C95 %2.7 °C2 km/hOSO5 km/h3.41004 hPa3.0 mm


Minima :

Température : 1.3 °C
Humidité : 76 %
Point de rosée : 0.3 °C
Vent moyen : 2 km/h
Windchill : 0.3
Pression atm. : 1003 hPa
Maxima :

Température : 5.3 °C
Humidité : 96 %
Point de rosée : 3.9 °C
Vent moyen : 10 km/h
Windchill : 5.2
Pression atm. : 1011 hPa
Rafales max : 24 km/h
Cumul de pluie sur 24H : 3.0 mm

Bazoches les gallerandes est une commune du département Loiret (45).
La station météorologique du réseau de l'association la plus proche de Bazoches-les-Gallerandes est celle de Boisseaux



Icône Facebook Association Météo Centre Icône Twitter Association Météo Centre Icône Chaîne Youtube Association Météo Centre Icône contact Association Météo Centre Icône Insta Association Météo Centre